createdAt,value
2015-12-20T00:00:06.866Z,2.85
2015-12-20T00:00:19.244Z,2.8
2015-12-20T00:00:31.588Z,2.87
2015-12-20T00:00:43.947Z,2.81
2015-12-20T00:00:56.307Z,2.85
2015-12-20T00:01:08.666Z,2.85
2015-12-20T00:01:21.028Z,2.81
2015-12-20T00:01:33.387Z,2.88
2015-12-20T00:01:45.809Z,2.84
2015-12-20T00:01:58.168Z,2.88
2015-12-20T00:02:10.528Z,2.93
2015-12-20T00:02:22.890Z,2.91
2015-12-20T00:02:35.281Z,2.85
2015-12-20T00:02:47.656Z,2.87
2015-12-20T00:03:00.015Z,2.87
2015-12-20T00:03:12.406Z,2.87
2015-12-20T00:03:24.784Z,2.85
2015-12-20T00:03:37.190Z,2.85
2015-12-20T00:03:49.565Z,2.83
2015-12-20T00:04:01.955Z,2.83
2015-12-20T00:04:14.362Z,2.88
2015-12-20T00:04:26.740Z,2.81
2015-12-20T00:04:39.130Z,2.87
2015-12-20T00:04:51.537Z,2.9
2015-12-20T00:05:03.896Z,2.84
2015-12-20T00:05:16.240Z,2.83
2015-12-20T00:05:28.602Z,2.8
2015-12-20T00:05:40.961Z,2.87
2015-12-20T00:05:53.321Z,2.8
2015-12-20T00:06:05.680Z,2.78
2015-12-20T00:06:17.321Z,2.83
2015-12-20T00:06:28.963Z,2.87
2015-12-20T00:06:41.323Z,2.73
2015-12-20T00:06:53.667Z,2.93
2015-12-20T00:07:06.010Z,2.8
2015-12-20T00:07:18.370Z,2.76
2015-12-20T00:07:30.716Z,2.87
2015-12-20T00:07:43.076Z,2.72
2015-12-20T00:07:55.451Z,2.73
2015-12-20T00:08:07.826Z,2.84
2015-12-20T00:08:19.482Z,2.78
2015-12-20T00:08:31.859Z,2.7
2015-12-20T00:08:43.531Z,2.77
2015-12-20T00:08:55.922Z,2.76
2015-12-20T00:09:08.312Z,2.72
2015-12-20T00:09:20.703Z,2.85
2015-12-20T00:09:33.112Z,2.72
2015-12-20T00:09:45.487Z,2.73
2015-12-20T00:09:57.878Z,2.73
2015-12-20T00:10:10.096Z,2.81
2015-12-20T00:10:22.487Z,2.76
2015-12-20T00:10:34.849Z,2.83
2015-12-20T00:10:47.209Z,2.73
2015-12-20T00:10:59.568Z,2.78
2015-12-20T00:11:11.928Z,2.78
2015-12-20T00:11:24.303Z,2.8
2015-12-20T00:11:36.665Z,2.81
2015-12-20T00:11:49.040Z,2.78
2015-12-20T00:12:01.384Z,2.9
2015-12-20T00:12:13.618Z,2.73
2015-12-20T00:12:25.962Z,2.76
2015-12-20T00:12:38.340Z,2.77
2015-12-20T00:12:50.684Z,2.8
2015-12-20T00:13:03.043Z,2.84
2015-12-20T00:13:15.418Z,2.8
2015-12-20T00:13:27.777Z,2.81
2015-12-20T00:13:40.154Z,2.9
2015-12-20T00:13:52.529Z,2.73
2015-12-20T00:14:04.904Z,2.8
2015-12-20T00:14:17.279Z,2.8
2015-12-20T00:14:29.686Z,2.76
2015-12-20T00:14:42.095Z,2.85
2015-12-20T00:14:54.470Z,2.83
2015-12-20T00:15:06.876Z,2.85
2015-12-20T00:15:19.251Z,2.84
2015-12-20T00:15:31.642Z,2.78
2015-12-20T00:15:44.051Z,2.81
2015-12-20T00:15:56.395Z,2.77
2015-12-20T00:16:08.770Z,2.85
2015-12-20T00:16:21.113Z,2.83
2015-12-20T00:16:33.473Z,2.81
2015-12-20T00:16:45.834Z,2.88
2015-12-20T00:16:58.194Z,2.91
2015-12-20T00:17:10.553Z,2.87
2015-12-20T00:17:22.912Z,2.81
2015-12-20T00:17:35.256Z,2.83
2015-12-20T00:17:47.618Z,2.87
2015-12-20T00:17:59.978Z,2.87
2015-12-20T00:18:12.337Z,2.9
2015-12-20T00:18:24.697Z,2.84
2015-12-20T00:18:37.056Z,2.85
2015-12-20T00:18:49.450Z,2.87
2015-12-20T00:19:01.825Z,2.87
2015-12-20T00:19:14.200Z,2.87
2015-12-20T00:19:26.575Z,2.88
2015-12-20T00:19:38.968Z,2.85
2015-12-20T00:19:51.203Z,2.93
2015-12-20T00:20:03.593Z,2.87
2015-12-20T00:20:15.984Z,2.9
2015-12-20T00:20:28.374Z,2.83
2015-12-20T00:20:40.752Z,2.85
2015-12-20T00:20:53.143Z,2.88
2015-12-20T00:21:05.377Z,2.78
2015-12-20T00:21:17.752Z,2.85
2015-12-20T00:21:30.112Z,2.87
2015-12-20T00:21:42.473Z,2.85
2015-12-20T00:21:54.833Z,2.88
2015-12-20T00:22:07.192Z,2.87
2015-12-20T00:22:19.551Z,2.87
2015-12-20T00:22:31.911Z,2.9
2015-12-20T00:22:44.273Z,2.88
2015-12-20T00:22:56.632Z,2.9
2015-12-20T00:23:08.992Z,2.95
2015-12-20T00:23:21.351Z,2.93
2015-12-20T00:23:33.711Z,2.88
2015-12-20T00:23:46.073Z,2.91
2015-12-20T00:23:58.432Z,2.84
2015-12-20T00:24:10.807Z,2.88
2015-12-20T00:24:23.182Z,2.87
2015-12-20T00:24:35.401Z,2.87
2015-12-20T00:24:47.763Z,2.96
2015-12-20T00:25:00.138Z,2.93
2015-12-20T00:25:12.513Z,2.95
2015-12-20T00:25:24.904Z,2.85
2015-12-20T00:25:37.295Z,2.87
2015-12-20T00:25:49.687Z,2.91
2015-12-20T00:26:02.094Z,2.91
2015-12-20T00:26:14.484Z,2.99
2015-12-20T00:26:26.859Z,2.98
2015-12-20T00:26:39.265Z,3.01
2015-12-20T00:26:51.612Z,2.99
2015-12-20T00:27:03.972Z,2.91
2015-12-20T00:27:16.331Z,2.9
2015-12-20T00:27:28.706Z,2.91
2015-12-20T00:27:41.065Z,2.91
2015-12-20T00:27:53.428Z,2.95
2015-12-20T00:28:05.787Z,3.01
2015-12-20T00:28:18.146Z,2.87
2015-12-20T00:28:30.490Z,2.96
2015-12-20T00:28:42.850Z,2.95
2015-12-20T00:28:55.211Z,2.98
2015-12-20T00:29:07.570Z,2.95
2015-12-20T00:29:19.914Z,2.95
2015-12-20T00:29:32.273Z,2.9
2015-12-20T00:29:44.648Z,2.91
2015-12-20T00:29:57.026Z,3.02
2015-12-20T00:30:08.683Z,2.9
2015-12-20T00:30:21.058Z,2.9
2015-12-20T00:30:33.448Z,2.9
2015-12-20T00:30:45.855Z,3.01
2015-12-20T00:30:58.248Z,3.01
2015-12-20T00:31:10.608Z,2.93
2015-12-20T00:31:22.951Z,2.93
2015-12-20T00:31:35.311Z,3.01
2015-12-20T00:31:47.670Z,2.9
2015-12-20T00:32:00.032Z,2.95
2015-12-20T00:32:12.392Z,2.98
2015-12-20T00:32:24.751Z,2.93
2015-12-20T00:32:37.111Z,2.88
2015-12-20T00:32:49.470Z,3.05
2015-12-20T00:33:01.848Z,3.02
2015-12-20T00:33:14.207Z,3.08
2015-12-20T00:33:26.567Z,3.05
2015-12-20T00:33:38.942Z,2.93
2015-12-20T00:33:51.301Z,2.98
2015-12-20T00:34:03.679Z,3.03
2015-12-20T00:34:16.054Z,3.06
2015-12-20T00:34:28.429Z,3.05
2015-12-20T00:34:40.804Z,3.02
2015-12-20T00:34:53.179Z,3.03
2015-12-20T00:35:05.415Z,3.11
2015-12-20T00:35:17.806Z,3.06
2015-12-20T00:35:30.197Z,3.03
2015-12-20T00:35:42.619Z,3.08
2015-12-20T00:35:54.994Z,3.05
2015-12-20T00:36:07.387Z,3.08
2015-12-20T00:36:19.747Z,2.98
2015-12-20T00:36:32.106Z,3.08
2015-12-20T00:36:44.465Z,3.03
2015-12-20T00:36:56.809Z,3.02
2015-12-20T00:37:09.187Z,3.05
2015-12-20T00:37:21.546Z,3.06
2015-12-20T00:37:33.890Z,3.05
2015-12-20T00:37:46.265Z,3.08
2015-12-20T00:37:58.609Z,3.11
2015-12-20T00:38:10.986Z,3.14
2015-12-20T00:38:23.330Z,3.05
2015-12-20T00:38:35.689Z,3.11
2015-12-20T00:38:48.033Z,3.03
2015-12-20T00:39:00.392Z,3.01
2015-12-20T00:39:12.770Z,3.09
2015-12-20T00:39:25.145Z,3.05
2015-12-20T00:39:37.520Z,3.02
2015-12-20T00:39:49.895Z,3.03
2015-12-20T00:40:02.270Z,3.03
2015-12-20T00:40:14.664Z,3.02
2015-12-20T00:40:27.094Z,3.05
2015-12-20T00:40:39.531Z,3.14
2015-12-20T00:40:51.906Z,3.05
2015-12-20T00:41:04.312Z,3.03
2015-12-20T00:41:16.706Z,3.05
2015-12-20T00:41:29.112Z,3.13
2015-12-20T00:41:41.456Z,3.02
2015-12-20T00:41:53.815Z,3.05
2015-12-20T00:42:06.175Z,3.02
2015-12-20T00:42:18.536Z,3.06
2015-12-20T00:42:30.880Z,3.09
2015-12-20T00:42:43.239Z,3.11
2015-12-20T00:42:55.442Z,3.06
2015-12-20T00:43:07.645Z,3.05
2015-12-20T00:43:20.008Z,3.06
2015-12-20T00:43:32.383Z,3.05
2015-12-20T00:43:44.773Z,3.05
2015-12-20T00:43:57.133Z,3.09
2015-12-20T00:44:09.492Z,3.11
2015-12-20T00:44:21.855Z,3.09
2015-12-20T00:44:34.245Z,3.16
2015-12-20T00:44:46.620Z,3.06
2015-12-20T00:44:58.995Z,3.03
2015-12-20T00:45:11.355Z,3.05
2015-12-20T00:45:23.747Z,3.13
2015-12-20T00:45:36.138Z,3.2
2015-12-20T00:45:48.528Z,3.16
2015-12-20T00:46:00.919Z,3.19
2015-12-20T00:46:13.310Z,3.13
2015-12-20T00:46:25.719Z,3.17
2015-12-20T00:46:38.110Z,3.19
2015-12-20T00:46:50.547Z,3.17
2015-12-20T00:47:02.906Z,3.17
2015-12-20T00:47:15.266Z,3.06
2015-12-20T00:47:27.628Z,3.2
2015-12-20T00:47:39.988Z,3.14
2015-12-20T00:47:52.331Z,3.14
2015-12-20T00:48:04.706Z,3.14
2015-12-20T00:48:17.066Z,3.14
2015-12-20T00:48:29.444Z,3.2
2015-12-20T00:48:41.787Z,3.19
2015-12-20T00:48:54.162Z,3.13
2015-12-20T00:49:06.522Z,3.17
2015-12-20T00:49:18.881Z,3.14
2015-12-20T00:49:31.244Z,3.21
2015-12-20T00:49:43.619Z,3.19
2015-12-20T00:49:55.275Z,3.17
2015-12-20T00:50:07.665Z,3.2
2015-12-20T00:50:20.040Z,3.21
2015-12-20T00:50:32.402Z,3.26
2015-12-20T00:50:44.792Z,3.23
2015-12-20T00:50:57.183Z,3.29
2015-12-20T00:51:09.574Z,3.32
2015-12-20T00:51:21.964Z,3.29
2015-12-20T00:51:34.187Z,3.29
2015-12-20T00:51:46.562Z,3.29
2015-12-20T00:51:58.968Z,3.3
2015-12-20T00:52:11.328Z,3.34
2015-12-20T00:52:23.671Z,3.3
2015-12-20T00:52:36.033Z,3.29
2015-12-20T00:52:48.377Z,3.24
2015-12-20T00:53:00.736Z,3.3
2015-12-20T00:53:13.095Z,3.27
2015-12-20T00:53:25.533Z,3.3
2015-12-20T00:53:37.895Z,3.27
2015-12-20T00:53:50.239Z,3.32
2015-12-20T00:54:02.614Z,3.29
2015-12-20T00:54:14.989Z,3.32
2015-12-20T00:54:27.333Z,3.3
2015-12-20T00:54:39.694Z,3.34
2015-12-20T00:54:52.038Z,3.34
2015-12-20T00:55:04.413Z,3.35
2015-12-20T00:55:16.788Z,3.4
2015-12-20T00:55:28.444Z,3.37
2015-12-20T00:55:40.807Z,3.35
2015-12-20T00:55:53.182Z,3.3
2015-12-20T00:56:05.573Z,3.27
2015-12-20T00:56:17.948Z,3.39
2015-12-20T00:56:30.323Z,3.34
2015-12-20T00:56:42.700Z,3.27
2015-12-20T00:56:55.091Z,3.32
2015-12-20T00:57:07.481Z,3.42
2015-12-20T00:57:19.872Z,3.45
2015-12-20T00:57:32.263Z,3.4
2015-12-20T00:57:44.641Z,3.42
2015-12-20T00:57:57.000Z,3.42
2015-12-20T00:58:09.359Z,3.32
2015-12-20T00:58:21.734Z,3.4
2015-12-20T00:58:34.094Z,3.42
2015-12-20T00:58:46.455Z,3.45
2015-12-20T00:58:58.814Z,3.4
2015-12-20T00:59:11.174Z,3.43
2015-12-20T00:59:23.533Z,3.43
2015-12-20T00:59:35.908Z,3.4
2015-12-20T00:59:48.271Z,3.45
2015-12-20T01:00:00.614Z,3.34
2015-12-20T01:00:12.974Z,3.46
2015-12-20T01:00:25.333Z,3.48
2015-12-20T01:00:37.711Z,3.46
2015-12-20T01:00:50.086Z,3.43
2015-12-20T01:01:02.461Z,3.37
2015-12-20T01:01:14.820Z,3.29
2015-12-20T01:01:27.211Z,3.39
2015-12-20T01:01:39.604Z,3.4
2015-12-20T01:01:51.979Z,3.37
2015-12-20T01:02:04.369Z,3.35
2015-12-20T01:02:16.776Z,3.35
2015-12-20T01:02:29.166Z,3.39
2015-12-20T01:02:41.575Z,3.29
2015-12-20T01:02:53.935Z,3.43
2015-12-20T01:03:06.294Z,3.42
2015-12-20T01:03:18.654Z,3.27
2015-12-20T01:03:31.013Z,3.39
2015-12-20T01:03:43.360Z,3.35
2015-12-20T01:03:55.719Z,3.35
2015-12-20T01:04:08.078Z,3.32
2015-12-20T01:04:20.422Z,3.32
2015-12-20T01:04:32.782Z,3.3
2015-12-20T01:04:45.144Z,3.37
2015-12-20T01:04:57.503Z,3.3
2015-12-20T01:05:09.863Z,3.35
2015-12-20T01:05:22.222Z,3.27
2015-12-20T01:05:34.769Z,3.35
2015-12-20T01:05:47.147Z,3.26
2015-12-20T01:05:58.819Z,3.35
2015-12-20T01:06:11.194Z,3.26
2015-12-20T01:06:23.584Z,3.32
2015-12-20T01:06:35.959Z,3.26
2015-12-20T01:06:48.336Z,3.3
2015-12-20T01:07:00.727Z,3.24
2015-12-20T01:07:13.102Z,3.35
2015-12-20T01:07:25.493Z,3.27
2015-12-20T01:07:37.899Z,3.23
2015-12-20T01:07:50.293Z,3.2
2015-12-20T01:08:02.652Z,3.29
2015-12-20T01:08:15.027Z,3.26
2015-12-20T01:08:27.371Z,3.27
2015-12-20T01:08:39.730Z,3.26
2015-12-20T01:08:51.389Z,3.24
2015-12-20T01:09:03.733Z,3.17
2015-12-20T01:09:16.092Z,3.27
2015-12-20T01:09:28.452Z,3.26
2015-12-20T01:09:40.811Z,3.27
2015-12-20T01:09:53.189Z,3.24
2015-12-20T01:10:05.549Z,3.23
2015-12-20T01:10:17.892Z,3.2
2015-12-20T01:10:30.252Z,3.26
2015-12-20T01:10:42.627Z,3.21
2015-12-20T01:10:55.005Z,3.23
2015-12-20T01:11:07.380Z,3.27
2015-12-20T01:11:19.739Z,3.23
2015-12-20T01:11:32.114Z,3.26
2015-12-20T01:11:44.489Z,3.26
2015-12-20T01:11:56.882Z,3.3
2015-12-20T01:12:09.257Z,3.26
2015-12-20T01:12:21.632Z,3.29
2015-12-20T01:12:34.038Z,3.29
2015-12-20T01:12:46.413Z,3.26
2015-12-20T01:12:58.807Z,3.29
2015-12-20T01:13:11.197Z,3.26
2015-12-20T01:13:23.557Z,3.34
2015-12-20T01:13:35.900Z,3.27
2015-12-20T01:13:48.260Z,3.24
2015-12-20T01:14:00.606Z,3.3
2015-12-20T01:14:12.966Z,3.2
2015-12-20T01:14:25.341Z,3.13
2015-12-20T01:14:37.685Z,3.34
2015-12-20T01:14:50.044Z,3.17
2015-12-20T01:15:02.405Z,3.29
2015-12-20T01:15:14.780Z,3.19
2015-12-20T01:15:27.124Z,3.24
2015-12-20T01:15:39.483Z,3.29
2015-12-20T01:15:51.843Z,3.23
2015-12-20T01:16:04.206Z,3.24
2015-12-20T01:16:15.862Z,3.26
2015-12-20T01:16:28.237Z,3.2
2015-12-20T01:16:40.597Z,3.19
2015-12-20T01:16:52.972Z,3.2
2015-12-20T01:17:05.364Z,3.21
2015-12-20T01:17:17.739Z,3.23
2015-12-20T01:17:28.724Z,3.17
2015-12-20T01:17:41.114Z,3.2
2015-12-20T01:17:53.489Z,3.26
2015-12-20T01:18:05.899Z,3.21
2015-12-20T01:18:18.289Z,3.11
2015-12-20T01:18:30.664Z,3.19
2015-12-20T01:18:43.039Z,3.17
2015-12-20T01:18:55.399Z,3.14
2015-12-20T01:19:07.761Z,3.14
2015-12-20T01:19:20.105Z,3.2
2015-12-20T01:19:32.464Z,3.26
2015-12-20T01:19:44.839Z,3.17
2015-12-20T01:19:57.199Z,3.13
2015-12-20T01:20:09.561Z,3.21
2015-12-20T01:20:21.920Z,3.16
2015-12-20T01:20:34.280Z,3.14
2015-12-20T01:20:46.655Z,3.16
2015-12-20T01:20:58.998Z,3.17
2015-12-20T01:21:11.360Z,3.23
2015-12-20T01:21:23.719Z,3.13
2015-12-20T01:21:36.079Z,3.23
2015-12-20T01:21:48.454Z,3.13
2015-12-20T01:22:32.150Z,3.24
2015-12-20T01:22:44.541Z,3.23
2015-12-20T01:22:56.931Z,3.17
2015-12-20T01:23:09.306Z,3.23
2015-12-20T01:23:21.541Z,3.23
2015-12-20T01:23:33.950Z,3.21
2015-12-20T01:23:46.356Z,3.29
2015-12-20T01:23:58.700Z,3.32
2015-12-20T01:24:11.059Z,3.29
2015-12-20T01:24:23.419Z,3.29
2015-12-20T01:24:35.765Z,3.27
2015-12-20T01:24:47.406Z,3.3
2015-12-20T01:24:59.765Z,3.35
2015-12-20T01:25:11.406Z,3.32
2015-12-20T01:25:23.765Z,3.29
2015-12-20T01:25:35.424Z,3.24
2015-12-20T01:25:47.627Z,3.3
2015-12-20T01:25:59.986Z,3.29
2015-12-20T01:26:12.361Z,3.29
2015-12-20T01:26:24.720Z,3.29
2015-12-20T01:26:37.083Z,3.34
2015-12-20T01:26:49.473Z,3.3
2015-12-20T01:27:01.848Z,3.3
2015-12-20T01:27:14.223Z,3.27
2015-12-20T01:27:25.880Z,3.27
2015-12-20T01:27:38.258Z,3.32
2015-12-20T01:27:50.633Z,3.29
2015-12-20T01:28:03.023Z,3.32
2015-12-20T01:28:15.414Z,3.34
2015-12-20T01:28:27.086Z,3.29
2015-12-20T01:28:39.479Z,3.34
2015-12-20T01:28:51.870Z,3.3
2015-12-20T01:29:04.292Z,3.27
2015-12-20T01:29:16.698Z,3.37
2015-12-20T01:29:29.073Z,3.39
2015-12-20T01:29:41.435Z,3.29
2015-12-20T01:29:53.794Z,3.29
2015-12-20T01:30:05.450Z,3.4
2015-12-20T01:30:17.794Z,3.29
2015-12-20T01:30:30.169Z,3.34
2015-12-20T01:30:42.516Z,3.29
2015-12-20T01:30:54.891Z,3.29
2015-12-20T01:31:07.234Z,3.4
2015-12-20T01:31:19.609Z,3.29
2015-12-20T01:31:31.953Z,3.26
2015-12-20T01:31:44.331Z,3.39
2015-12-20T01:31:56.691Z,3.32
2015-12-20T01:32:08.331Z,3.3
2015-12-20T01:32:20.722Z,3.3
2015-12-20T01:32:33.112Z,3.3
2015-12-20T01:32:45.489Z,3.35
2015-12-20T01:32:57.864Z,3.27
2015-12-20T01:33:10.239Z,3.34
2015-12-20T01:33:22.630Z,3.3
2015-12-20T01:33:35.021Z,3.32
2015-12-20T01:33:47.414Z,3.3
2015-12-20T01:33:59.805Z,3.35
2015-12-20T01:34:12.164Z,3.24
2015-12-20T01:34:24.524Z,3.27
2015-12-20T01:34:36.883Z,3.29
2015-12-20T01:34:49.244Z,3.26
2015-12-20T01:35:01.604Z,3.29
2015-12-20T01:35:13.963Z,3.32
2015-12-20T01:35:26.323Z,3.29
2015-12-20T01:35:38.666Z,3.29
2015-12-20T01:35:51.029Z,3.24
2015-12-20T01:36:03.404Z,3.29
2015-12-20T01:36:15.747Z,3.2
2015-12-20T01:36:28.107Z,3.27
2015-12-20T01:36:40.466Z,3.3
2015-12-20T01:36:52.829Z,3.24
2015-12-20T01:37:05.204Z,3.26
2015-12-20T01:37:17.579Z,3.3
2015-12-20T01:37:29.938Z,3.27
2015-12-20T01:37:41.610Z,3.27
2015-12-20T01:37:53.987Z,3.19
2015-12-20T01:38:06.377Z,3.23
2015-12-20T01:38:18.752Z,3.3
2015-12-20T01:38:31.127Z,3.19
2015-12-20T01:38:43.518Z,3.2
2015-12-20T01:38:55.913Z,3.21
2015-12-20T01:39:08.272Z,3.21
2015-12-20T01:39:20.616Z,3.19
2015-12-20T01:39:32.975Z,3.27
2015-12-20T01:39:45.335Z,3.21
2015-12-20T01:39:57.697Z,3.24
2015-12-20T01:40:10.041Z,3.21
2015-12-20T01:40:22.400Z,3.17
2015-12-20T01:40:34.759Z,3.13
2015-12-20T01:40:47.119Z,3.16
2015-12-20T01:40:59.480Z,3.19
2015-12-20T01:41:11.855Z,3.19
2015-12-20T01:41:24.215Z,3.23
2015-12-20T01:41:36.558Z,3.21
2015-12-20T01:41:48.918Z,3.21
2015-12-20T01:42:01.280Z,3.14
2015-12-20T01:42:13.671Z,3.14
2015-12-20T01:42:26.046Z,3.14
2015-12-20T01:42:38.421Z,3.16
2015-12-20T01:42:50.780Z,3.16
2015-12-20T01:43:03.174Z,3.26
2015-12-20T01:43:15.549Z,3.17
2015-12-20T01:43:27.939Z,3.19
2015-12-20T01:43:40.330Z,3.2
2015-12-20T01:43:52.705Z,3.26
2015-12-20T01:44:05.114Z,3.2
2015-12-20T01:44:17.505Z,3.17
2015-12-20T01:44:29.895Z,3.11
2015-12-20T01:44:42.270Z,3.21
2015-12-20T01:44:54.614Z,3.14
2015-12-20T01:45:06.991Z,3.14
2015-12-20T01:45:19.351Z,3.14
2015-12-20T01:45:31.694Z,3.16
2015-12-20T01:45:43.897Z,3.09
2015-12-20T01:45:56.085Z,3.19
2015-12-20T01:46:08.479Z,3.21
2015-12-20T01:46:20.838Z,3.23
2015-12-20T01:46:33.197Z,3.23
2015-12-20T01:46:45.572Z,3.2
2015-12-20T01:46:57.932Z,3.24
2015-12-20T01:47:10.294Z,3.2
2015-12-20T01:47:22.638Z,3.21
2015-12-20T01:47:34.997Z,3.16
2015-12-20T01:47:47.372Z,3.17
2015-12-20T01:47:59.607Z,3.14
2015-12-20T01:48:11.985Z,3.16
2015-12-20T01:48:24.360Z,3.06
2015-12-20T01:48:36.750Z,3.14
2015-12-20T01:48:49.141Z,3.13
2015-12-20T01:49:01.531Z,3.16
2015-12-20T01:49:13.924Z,3.03
2015-12-20T01:49:26.315Z,3.14
2015-12-20T01:49:38.705Z,3.06
2015-12-20T01:49:51.096Z,3.05
2015-12-20T01:50:03.502Z,3.02
2015-12-20T01:50:15.708Z,3.03
2015-12-20T01:50:28.068Z,3.13
2015-12-20T01:50:40.411Z,3.05
2015-12-20T01:50:52.771Z,3.02
2015-12-20T01:51:05.130Z,3.03
2015-12-20T01:51:17.508Z,2.98
2015-12-20T01:51:29.868Z,3.08
2015-12-20T01:51:42.211Z,3.05
2015-12-20T01:51:54.571Z,3.06
2015-12-20T01:52:06.930Z,3.06
2015-12-20T01:52:19.292Z,3.05
2015-12-20T01:52:31.652Z,3.02
2015-12-20T01:52:44.011Z,3.03
2015-12-20T01:52:56.371Z,3.06
2015-12-20T01:53:08.761Z,2.95
2015-12-20T01:53:21.138Z,3.05
2015-12-20T01:53:33.513Z,3.01
2015-12-20T01:53:45.888Z,2.95
2015-12-20T01:53:58.279Z,3.05
2015-12-20T01:54:10.669Z,2.96
2015-12-20T01:54:23.063Z,2.96
2015-12-20T01:54:35.438Z,2.9
2015-12-20T01:54:47.829Z,3.05
2015-12-20T01:55:00.219Z,2.93
2015-12-20T01:55:12.626Z,2.9
2015-12-20T01:55:25.019Z,2.96
2015-12-20T01:55:37.379Z,2.93
2015-12-20T01:55:49.738Z,2.9
2015-12-20T01:56:02.097Z,2.91
2015-12-20T01:56:14.441Z,3.01
2015-12-20T01:56:26.819Z,2.91
2015-12-20T01:56:39.163Z,2.95
2015-12-20T01:56:51.522Z,2.93
2015-12-20T01:57:03.882Z,2.95
2015-12-20T01:57:16.241Z,2.88
2015-12-20T01:57:28.602Z,2.98
2015-12-20T01:57:40.946Z,2.91
2015-12-20T01:57:53.305Z,2.96
2015-12-20T01:58:05.665Z,2.96
2015-12-20T01:58:18.040Z,2.93
2015-12-20T01:58:30.433Z,2.98
2015-12-20T01:58:42.808Z,2.96
2015-12-20T01:58:55.183Z,2.98
2015-12-20T01:59:07.558Z,3.05
2015-12-20T01:59:19.965Z,3.02
2015-12-20T01:59:32.343Z,2.98
2015-12-20T01:59:44.733Z,3.06
2015-12-20T01:59:57.124Z,3.06
2015-12-20T02:00:09.515Z,3.03
2015-12-20T02:00:21.905Z,3.11
2015-12-20T02:00:34.283Z,3.08
2015-12-20T02:00:46.518Z,3.09
2015-12-20T02:00:58.877Z,3.01
2015-12-20T02:01:11.236Z,3.06
2015-12-20T02:01:23.596Z,3.09
2015-12-20T02:01:35.942Z,3.06
2015-12-20T02:01:48.317Z,3.11
2015-12-20T02:02:00.661Z,3.02
2015-12-20T02:02:13.021Z,3.08
2015-12-20T02:02:25.380Z,3.06
2015-12-20T02:02:37.741Z,3.01
2015-12-20T02:02:50.101Z,3.16
2015-12-20T02:03:02.444Z,3.06
2015-12-20T02:03:14.804Z,3.08
2015-12-20T02:03:27.163Z,3.01
2015-12-20T02:03:39.526Z,3.05
2015-12-20T02:03:51.901Z,3.06
2015-12-20T02:04:04.276Z,3.11
2015-12-20T02:04:16.651Z,3.09
2015-12-20T02:04:29.026Z,3.03
2015-12-20T02:04:41.404Z,3.13
2015-12-20T02:04:53.107Z,3.08
2015-12-20T02:05:05.497Z,3.03
2015-12-20T02:05:17.169Z,3.05
2015-12-20T02:05:29.575Z,3.03
2015-12-20T02:05:41.953Z,3.05
2015-12-20T02:05:54.313Z,3.19
2015-12-20T02:06:06.672Z,3.05
2015-12-20T02:06:19.032Z,3.14
2015-12-20T02:06:31.375Z,3.16
2015-12-20T02:06:43.737Z,3.17
2015-12-20T02:06:56.096Z,3.17
2015-12-20T02:07:08.455Z,3.08
2015-12-20T02:07:20.815Z,3.17
2015-12-20T02:07:33.190Z,3.13
2015-12-20T02:07:45.552Z,3.14
2015-12-20T02:07:57.912Z,3.02
2015-12-20T02:08:10.287Z,3.14
2015-12-20T02:08:22.630Z,3.09
2015-12-20T02:08:35.007Z,3.14
2015-12-20T02:08:47.367Z,3.05
2015-12-20T02:08:59.742Z,3.02
2015-12-20T02:09:12.117Z,3.06
2015-12-20T02:09:24.476Z,3.01
2015-12-20T02:09:36.870Z,3.06
2015-12-20T02:09:49.245Z,3.09
2015-12-20T02:10:01.635Z,3.08
2015-12-20T02:10:14.026Z,3.06
2015-12-20T02:10:25.713Z,3.08
2015-12-20T02:10:38.107Z,3.09
2015-12-20T02:10:50.498Z,3.08
2015-12-20T02:11:02.904Z,3.05
2015-12-20T02:11:15.091Z,3.06
2015-12-20T02:11:27.451Z,3.09
2015-12-20T02:11:39.812Z,3.05
2015-12-20T02:11:52.156Z,3.06
2015-12-20T02:12:04.515Z,3.09
2015-12-20T02:12:16.875Z,3.01
2015-12-20T02:12:29.234Z,3.08
2015-12-20T02:12:41.581Z,3.06
2015-12-20T02:12:53.940Z,3.09
2015-12-20T02:13:06.300Z,3.06
2015-12-20T02:13:18.659Z,3.02
2015-12-20T02:13:31.018Z,3.02
2015-12-20T02:13:42.663Z,3.03
2015-12-20T02:13:55.022Z,3.06
2015-12-20T02:14:06.694Z,2.95
2015-12-20T02:14:19.069Z,3.03
2015-12-20T02:14:31.460Z,3.03
2015-12-20T02:14:43.837Z,2.95
2015-12-20T02:14:56.212Z,3.02
2015-12-20T02:15:08.602Z,2.93
2015-12-20T02:15:20.993Z,3.03
2015-12-20T02:15:33.384Z,2.93
2015-12-20T02:15:45.777Z,2.95
2015-12-20T02:15:58.168Z,2.93
2015-12-20T02:16:10.559Z,2.93
2015-12-20T02:16:22.934Z,2.98
2015-12-20T02:16:35.324Z,2.91
2015-12-20T02:16:47.701Z,2.98
2015-12-20T02:17:00.045Z,2.95
2015-12-20T02:17:12.404Z,2.93
2015-12-20T02:17:24.748Z,2.96
2015-12-20T02:17:37.107Z,2.9
2015-12-20T02:17:49.471Z,3.03
2015-12-20T02:18:01.830Z,2.9
2015-12-20T02:18:14.190Z,2.99
2015-12-20T02:18:26.549Z,2.96
2015-12-20T02:18:38.908Z,2.99
2015-12-20T02:18:51.285Z,2.91
2015-12-20T02:19:03.645Z,2.9
2015-12-20T02:19:15.988Z,2.9
2015-12-20T02:19:28.363Z,2.95
2015-12-20T02:19:40.723Z,2.96
2015-12-20T02:19:53.101Z,2.93
2015-12-20T02:20:05.476Z,2.87
2015-12-20T02:20:17.851Z,2.99
2015-12-20T02:20:30.241Z,2.9
2015-12-20T02:20:42.616Z,2.96
2015-12-20T02:20:55.026Z,2.98
2015-12-20T02:21:07.416Z,2.93
2015-12-20T02:21:19.823Z,2.91
2015-12-20T02:21:32.057Z,2.95
2015-12-20T02:21:44.448Z,2.91
2015-12-20T02:21:56.841Z,2.95
2015-12-20T02:22:09.216Z,2.95
2015-12-20T02:22:21.576Z,2.88
2015-12-20T02:22:33.935Z,2.91
2015-12-20T02:22:46.294Z,2.95
2015-12-20T02:22:57.953Z,2.91
2015-12-20T02:23:10.296Z,2.98
2015-12-20T02:23:22.640Z,2.93
2015-12-20T02:23:34.999Z,2.95
2015-12-20T02:23:47.343Z,2.95
2015-12-20T02:23:59.565Z,2.91
2015-12-20T02:24:11.956Z,2.95
2015-12-20T02:24:24.315Z,2.9
2015-12-20T02:24:36.674Z,2.95
2015-12-20T02:24:49.034Z,2.98
2015-12-20T02:25:01.412Z,2.98
2015-12-20T02:25:13.771Z,2.93
2015-12-20T02:25:26.162Z,2.96
2015-12-20T02:25:38.521Z,2.9
2015-12-20T02:25:50.912Z,2.93
2015-12-20T02:26:03.304Z,2.95
2015-12-20T02:26:15.695Z,2.91
2015-12-20T02:26:28.086Z,2.98
2015-12-20T02:26:40.492Z,2.9
2015-12-20T02:26:52.726Z,2.91
2015-12-20T02:27:04.964Z,2.96
2015-12-20T02:27:17.354Z,2.9
2015-12-20T02:27:29.760Z,3.01
2015-12-20T02:27:42.120Z,2.93
2015-12-20T02:27:54.479Z,2.91
2015-12-20T02:28:06.842Z,2.9
2015-12-20T02:28:19.185Z,2.99
2015-12-20T02:28:30.842Z,2.98
2015-12-20T02:28:43.201Z,2.98
2015-12-20T02:28:55.560Z,2.93
2015-12-20T02:29:07.923Z,2.91
2015-12-20T02:29:20.282Z,2.91
2015-12-20T02:29:32.641Z,2.96
2015-12-20T02:29:45.001Z,2.96
2015-12-20T02:29:57.360Z,2.88
2015-12-20T02:30:09.707Z,2.91
2015-12-20T02:30:22.098Z,2.91
2015-12-20T02:30:34.457Z,2.91
2015-12-20T02:30:46.848Z,2.96
2015-12-20T02:30:59.207Z,2.96
2015-12-20T02:31:11.600Z,2.95
2015-12-20T02:31:23.975Z,2.85
2015-12-20T02:31:36.381Z,2.93
2015-12-20T02:31:48.756Z,2.93
2015-12-20T02:32:01.131Z,2.91
2015-12-20T02:32:13.540Z,2.93
2015-12-20T02:32:25.915Z,2.88
2015-12-20T02:32:38.321Z,2.9
2015-12-20T02:32:50.681Z,2.9
2015-12-20T02:33:03.040Z,2.96
2015-12-20T02:33:15.402Z,2.91
2015-12-20T02:33:27.762Z,2.91
2015-12-20T02:33:39.402Z,2.99
2015-12-20T02:33:51.809Z,2.88
2015-12-20T02:34:04.168Z,2.99
2015-12-20T02:34:16.529Z,2.98
2015-12-20T02:34:28.889Z,2.99
2015-12-20T02:34:41.264Z,2.91
2015-12-20T02:34:53.623Z,2.96
2015-12-20T02:35:05.983Z,2.91
2015-12-20T02:35:18.329Z,2.96
2015-12-20T02:35:30.689Z,2.93
2015-12-20T02:35:43.064Z,2.91
2015-12-20T02:35:55.423Z,2.95
2015-12-20T02:36:07.798Z,2.96
2015-12-20T02:36:20.160Z,3.03
2015-12-20T02:36:32.535Z,3.06
2015-12-20T02:36:44.910Z,3.03
2015-12-20T02:36:57.301Z,3.06
2015-12-20T02:37:09.692Z,3.14
2015-12-20T02:37:22.085Z,3.08
2015-12-20T02:37:34.476Z,3.06
2015-12-20T02:37:46.835Z,3.06
2015-12-20T02:37:59.195Z,3.13
2015-12-20T02:38:11.554Z,3.08
2015-12-20T02:38:23.916Z,3.06
2015-12-20T02:38:36.276Z,3.08
2015-12-20T02:38:48.635Z,3.05
2015-12-20T02:39:00.838Z,3.05
2015-12-20T02:39:13.198Z,3.19
2015-12-20T02:39:25.543Z,3.19
2015-12-20T02:39:37.918Z,3.09
2015-12-20T02:39:50.122Z,3.09
2015-12-20T02:40:02.481Z,3.03
2015-12-20T02:40:14.122Z,3.11
2015-12-20T02:40:26.484Z,3.14
2015-12-20T02:40:38.859Z,3.14
2015-12-20T02:40:51.218Z,3.17
2015-12-20T02:41:03.593Z,3.21
2015-12-20T02:41:15.953Z,3.14
2015-12-20T02:41:28.331Z,3.14
2015-12-20T02:41:40.706Z,3.14
2015-12-20T02:41:52.940Z,3.17
2015-12-20T02:42:05.331Z,3.14
2015-12-20T02:42:17.721Z,3.27
2015-12-20T02:42:30.131Z,3.21
2015-12-20T02:42:42.506Z,3.13
2015-12-20T02:42:54.881Z,3.26
2015-12-20T02:43:07.287Z,3.17
2015-12-20T02:43:19.646Z,3.29
2015-12-20T02:43:31.992Z,3.21
2015-12-20T02:43:44.367Z,3.2
2015-12-20T02:43:56.726Z,3.21
2015-12-20T02:44:09.086Z,3.23
2015-12-20T02:44:21.445Z,3.24
2015-12-20T02:44:33.807Z,3.29
2015-12-20T02:44:46.167Z,3.29
2015-12-20T02:44:58.526Z,3.26
2015-12-20T02:45:10.901Z,3.19
2015-12-20T02:45:23.261Z,3.3